Coutts, Canada
Current Conditions -  °F | °C
As of 8:56 PM on Tuesday 25 Nov 2014 (Local Time) from KCTB Reporting Station
Overcast Overcast  
Wind Chill: 24°   Ceiling: 4400
Heat Index: 30°   Visibility: 10mi
Dew Point: 21°   Wind: 6mph
Humidity: 69%   Direction: 120°ESE
Pressure: 30.11"   Gusts: NA
Location:  49°N, 111.95°W
Report Text: KCTB 260356Z AUTO 12005KT 10SM OVC044 M01/M06 A3011 RMK AO2 SLP224 T10111061
Loading
Personal Weather Stations






























Interactive Weather Map New forecast layout! Learn more

10-Day Weather Forecast

Advertisements
Track Severe Weather on mobile